sensor_id;sensor_type;location;lat;lon;timestamp;P1;durP1;ratioP1;P2;durP2;ratioP2
45322;SDS011;31382;50.200;8.674;2023-05-07T00:02:46;1.35;;;0.70;;
45322;SDS011;31382;50.200;8.674;2023-05-07T00:07:47;2.17;;;0.98;;
45322;SDS011;31382;50.200;8.674;2023-05-07T00:12:49;1.45;;;0.60;;
45322;SDS011;31382;50.200;8.674;2023-05-07T00:17:50;2.28;;;0.70;;
45322;SDS011;31382;50.200;8.674;2023-05-07T00:22:52;5.68;;;0.88;;
45322;SDS011;31382;50.200;8.674;2023-05-07T00:27:53;0.93;;;0.60;;
45322;SDS011;31382;50.200;8.674;2023-05-07T00:32:54;1.65;;;0.70;;
45322;SDS011;31382;50.200;8.674;2023-05-07T00:37:56;0.98;;;0.57;;
45322;SDS011;31382;50.200;8.674;2023-05-07T00:42:58;1.13;;;0.52;;
45322;SDS011;31382;50.200;8.674;2023-05-07T00:48:01;2.35;;;0.70;;
45322;SDS011;31382;50.200;8.674;2023-05-07T00:53:03;3.60;;;0.93;;
45322;SDS011;31382;50.200;8.674;2023-05-07T00:58:05;4.93;;;0.60;;
45322;SDS011;31382;50.200;8.674;2023-05-07T01:03:07;3.30;;;1.00;;
45322;SDS011;31382;50.200;8.674;2023-05-07T01:08:09;0.98;;;0.60;;
45322;SDS011;31382;50.200;8.674;2023-05-07T01:13:11;1.42;;;0.73;;
45322;SDS011;31382;50.200;8.674;2023-05-07T01:18:14;1.63;;;0.65;;
45322;SDS011;31382;50.200;8.674;2023-05-07T01:23:16;0.80;;;0.80;;
45322;SDS011;31382;50.200;8.674;2023-05-07T01:28:19;2.53;;;0.63;;
45322;SDS011;31382;50.200;8.674;2023-05-07T01:33:21;2.35;;;0.70;;
45322;SDS011;31382;50.200;8.674;2023-05-07T01:38:23;3.03;;;0.70;;
45322;SDS011;31382;50.200;8.674;2023-05-07T01:43:25;2.50;;;0.90;;
45322;SDS011;31382;50.200;8.674;2023-05-07T01:48:26;2.95;;;0.50;;
45322;SDS011;31382;50.200;8.674;2023-05-07T01:53:28;6.47;;;0.90;;
45322;SDS011;31382;50.200;8.674;2023-05-07T01:58:29;0.60;;;0.50;;
45322;SDS011;31382;50.200;8.674;2023-05-07T02:03:31;4.45;;;0.68;;
45322;SDS011;31382;50.200;8.674;2023-05-07T02:08:32;1.33;;;0.65;;
45322;SDS011;31382;50.200;8.674;2023-05-07T02:13:34;1.05;;;0.70;;
45322;SDS011;31382;50.200;8.674;2023-05-07T02:18:35;1.98;;;0.70;;
45322;SDS011;31382;50.200;8.674;2023-05-07T02:23:37;2.30;;;0.82;;
45322;SDS011;31382;50.200;8.674;2023-05-07T02:28:38;1.58;;;0.70;;
45322;SDS011;31382;50.200;8.674;2023-05-07T02:33:40;2.85;;;0.95;;
45322;SDS011;31382;50.200;8.674;2023-05-07T02:38:41;1.73;;;0.70;;
45322;SDS011;31382;50.200;8.674;2023-05-07T02:43:42;1.10;;;0.73;;
45322;SDS011;31382;50.200;8.674;2023-05-07T02:48:44;1.55;;;0.80;;
45322;SDS011;31382;50.200;8.674;2023-05-07T02:53:45;2.95;;;1.42;;
45322;SDS011;31382;50.200;8.674;2023-05-07T02:58:47;1.50;;;0.88;;
45322;SDS011;31382;50.200;8.674;2023-05-07T03:03:48;1.48;;;0.88;;
45322;SDS011;31382;50.200;8.674;2023-05-07T03:08:49;1.95;;;0.75;;
45322;SDS011;31382;50.200;8.674;2023-05-07T03:13:51;3.42;;;1.23;;
45322;SDS011;31382;50.200;8.674;2023-05-07T03:18:52;2.85;;;1.58;;
45322;SDS011;31382;50.200;8.674;2023-05-07T03:23:54;1.67;;;0.73;;
45322;SDS011;31382;50.200;8.674;2023-05-07T03:28:55;1.05;;;0.88;;
45322;SDS011;31382;50.200;8.674;2023-05-07T03:33:57;1.98;;;0.90;;
45322;SDS011;31382;50.200;8.674;2023-05-07T03:38:58;2.40;;;0.90;;
45322;SDS011;31382;50.200;8.674;2023-05-07T03:44:00;5.30;;;0.80;;
45322;SDS011;31382;50.200;8.674;2023-05-07T03:49:01;2.03;;;0.80;;
45322;SDS011;31382;50.200;8.674;2023-05-07T03:54:02;2.05;;;0.80;;
45322;SDS011;31382;50.200;8.674;2023-05-07T03:59:06;1.13;;;0.95;;
45322;SDS011;31382;50.200;8.674;2023-05-07T04:04:07;4.07;;;1.52;;
45322;SDS011;31382;50.200;8.674;2023-05-07T04:09:09;3.55;;;0.90;;
45322;SDS011;31382;50.200;8.674;2023-05-07T04:14:10;4.28;;;0.80;;
45322;SDS011;31382;50.200;8.674;2023-05-07T04:19:12;3.05;;;0.95;;
45322;SDS011;31382;50.200;8.674;2023-05-07T04:24:13;2.90;;;1.10;;
45322;SDS011;31382;50.200;8.674;2023-05-07T04:29:15;3.50;;;1.00;;
45322;SDS011;31382;50.200;8.674;2023-05-07T04:34:16;9.18;;;1.40;;
45322;SDS011;31382;50.200;8.674;2023-05-07T04:39:17;2.10;;;1.20;;
45322;SDS011;31382;50.200;8.674;2023-05-07T04:44:19;1.77;;;1.27;;
45322;SDS011;31382;50.200;8.674;2023-05-07T04:49:20;3.42;;;1.25;;
45322;SDS011;31382;50.200;8.674;2023-05-07T04:54:22;3.30;;;1.15;;
45322;SDS011;31382;50.200;8.674;2023-05-07T04:59:23;2.90;;;1.90;;
45322;SDS011;31382;50.200;8.674;2023-05-07T05:04:25;2.95;;;1.27;;
45322;SDS011;31382;50.200;8.674;2023-05-07T05:09:26;4.47;;;1.10;;
45322;SDS011;31382;50.200;8.674;2023-05-07T05:14:28;4.07;;;1.40;;
45322;SDS011;31382;50.200;8.674;2023-05-07T05:19:30;2.03;;;1.27;;
45322;SDS011;31382;50.200;8.674;2023-05-07T05:24:31;1.48;;;0.98;;
45322;SDS011;31382;50.200;8.674;2023-05-07T05:29:33;2.17;;;0.98;;
45322;SDS011;31382;50.200;8.674;2023-05-07T05:34:34;1.45;;;0.93;;
45322;SDS011;31382;50.200;8.674;2023-05-07T05:39:36;5.25;;;0.90;;
45322;SDS011;31382;50.200;8.674;2023-05-07T05:44:37;4.30;;;1.13;;
45322;SDS011;31382;50.200;8.674;2023-05-07T05:49:38;1.63;;;0.93;;
45322;SDS011;31382;50.200;8.674;2023-05-07T05:54:40;2.92;;;1.10;;
45322;SDS011;31382;50.200;8.674;2023-05-07T05:59:41;2.05;;;1.10;;
45322;SDS011;31382;50.200;8.674;2023-05-07T06:04:45;2.13;;;0.88;;
45322;SDS011;31382;50.200;8.674;2023-05-07T06:09:46;2.83;;;1.10;;
45322;SDS011;31382;50.200;8.674;2023-05-07T06:14:48;2.78;;;1.02;;
45322;SDS011;31382;50.200;8.674;2023-05-07T06:19:49;3.78;;;1.10;;
45322;SDS011;31382;50.200;8.674;2023-05-07T06:24:51;3.42;;;1.92;;
45322;SDS011;31382;50.200;8.674;2023-05-07T06:29:52;1.83;;;1.10;;
45322;SDS011;31382;50.200;8.674;2023-05-07T06:34:53;3.63;;;1.10;;
45322;SDS011;31382;50.200;8.674;2023-05-07T06:39:55;2.05;;;0.90;;
45322;SDS011;31382;50.200;8.674;2023-05-07T06:44:59;2.47;;;1.33;;
45322;SDS011;31382;50.200;8.674;2023-05-07T06:50:00;2.92;;;1.17;;
45322;SDS011;31382;50.200;8.674;2023-05-07T06:55:02;1.70;;;1.30;;
45322;SDS011;31382;50.200;8.674;2023-05-07T07:00:04;3.20;;;1.25;;
45322;SDS011;31382;50.200;8.674;2023-05-07T07:05:08;4.05;;;1.17;;
45322;SDS011;31382;50.200;8.674;2023-05-07T07:10:10;3.80;;;1.40;;
45322;SDS011;31382;50.200;8.674;2023-05-07T07:15:13;2.03;;;1.30;;
45322;SDS011;31382;50.200;8.674;2023-05-07T07:20:14;2.13;;;1.30;;
45322;SDS011;31382;50.200;8.674;2023-05-07T07:25:16;2.22;;;1.50;;
45322;SDS011;31382;50.200;8.674;2023-05-07T07:30:18;2.03;;;1.33;;
45322;SDS011;31382;50.200;8.674;2023-05-07T07:35:19;1.20;;;1.10;;
45322;SDS011;31382;50.200;8.674;2023-05-07T07:40:20;3.08;;;1.63;;
45322;SDS011;31382;50.200;8.674;2023-05-07T07:45:22;1.88;;;1.38;;
45322;SDS011;31382;50.200;8.674;2023-05-07T07:50:24;3.28;;;1.23;;
45322;SDS011;31382;50.200;8.674;2023-05-07T07:55:44;4.95;;;2.33;;
45322;SDS011;31382;50.200;8.674;2023-05-07T08:00:45;2.00;;;1.80;;
45322;SDS011;31382;50.200;8.674;2023-05-07T08:05:48;2.17;;;1.58;;
45322;SDS011;31382;50.200;8.674;2023-05-07T08:10:52;1.70;;;1.40;;
45322;SDS011;31382;50.200;8.674;2023-05-07T08:15:53;3.13;;;1.70;;
45322;SDS011;31382;50.200;8.674;2023-05-07T08:20:54;2.05;;;1.48;;
45322;SDS011;31382;50.200;8.674;2023-05-07T08:25:56;3.88;;;1.83;;
45322;SDS011;31382;50.200;8.674;2023-05-07T08:30:57;3.22;;;1.40;;
45322;SDS011;31382;50.200;8.674;2023-05-07T08:36:01;2.45;;;1.45;;
45322;SDS011;31382;50.200;8.674;2023-05-07T08:41:03;1.42;;;1.10;;
45322;SDS011;31382;50.200;8.674;2023-05-07T08:46:04;2.28;;;1.50;;
45322;SDS011;31382;50.200;8.674;2023-05-07T08:51:13;1.57;;;1.00;;
45322;SDS011;31382;50.200;8.674;2023-05-07T08:56:17;4.53;;;1.38;;
45322;SDS011;31382;50.200;8.674;2023-05-07T09:01:21;3.20;;;1.38;;
45322;SDS011;31382;50.200;8.674;2023-05-07T09:06:23;2.08;;;1.27;;
45322;SDS011;31382;50.200;8.674;2023-05-07T09:11:24;1.95;;;1.20;;
45322;SDS011;31382;50.200;8.674;2023-05-07T09:16:26;3.60;;;1.80;;
45322;SDS011;31382;50.200;8.674;2023-05-07T09:21:31;3.25;;;1.13;;
45322;SDS011;31382;50.200;8.674;2023-05-07T09:26:32;1.30;;;1.20;;
45322;SDS011;31382;50.200;8.674;2023-05-07T09:31:38;2.70;;;1.83;;
45322;SDS011;31382;50.200;8.674;2023-05-07T09:36:40;9.65;;;1.75;;
45322;SDS011;31382;50.200;8.674;2023-05-07T09:41:45;5.93;;;2.08;;
45322;SDS011;31382;50.200;8.674;2023-05-07T09:46:50;2.53;;;2.20;;
45322;SDS011;31382;50.200;8.674;2023-05-07T09:51:55;4.85;;;2.08;;
45322;SDS011;31382;50.200;8.674;2023-05-07T09:56:57;2.55;;;1.20;;
45322;SDS011;31382;50.200;8.674;2023-05-07T10:01:59;5.93;;;2.05;;
45322;SDS011;31382;50.200;8.674;2023-05-07T10:07:05;5.83;;;1.90;;
45322;SDS011;31382;50.200;8.674;2023-05-07T10:12:06;3.55;;;1.60;;
45322;SDS011;31382;50.200;8.674;2023-05-07T10:17:08;1.58;;;1.20;;
45322;SDS011;31382;50.200;8.674;2023-05-07T10:22:12;2.50;;;1.27;;
45322;SDS011;31382;50.200;8.674;2023-05-07T10:27:17;2.53;;;2.10;;
45322;SDS011;31382;50.200;8.674;2023-05-07T10:37:30;3.08;;;1.52;;
45322;SDS011;31382;50.200;8.674;2023-05-07T10:42:32;4.22;;;1.33;;
45322;SDS011;31382;50.200;8.674;2023-05-07T10:47:33;2.35;;;1.48;;
45322;SDS011;31382;50.200;8.674;2023-05-07T10:52:35;1.50;;;1.40;;
45322;SDS011;31382;50.200;8.674;2023-05-07T10:57:36;1.23;;;1.00;;
45322;SDS011;31382;50.200;8.674;2023-05-07T11:08:02;2.67;;;1.10;;
45322;SDS011;31382;50.200;8.674;2023-05-07T11:13:04;2.00;;;1.10;;
45322;SDS011;31382;50.200;8.674;2023-05-07T11:18:06;1.73;;;1.00;;
45322;SDS011;31382;50.200;8.674;2023-05-07T11:23:08;1.45;;;0.93;;
45322;SDS011;31382;50.200;8.674;2023-05-07T11:28:09;2.83;;;0.93;;
45322;SDS011;31382;50.200;8.674;2023-05-07T11:33:11;1.02;;;0.98;;
45322;SDS011;31382;50.200;8.674;2023-05-07T11:38:13;2.40;;;0.93;;
45322;SDS011;31382;50.200;8.674;2023-05-07T11:43:14;1.48;;;1.00;;
45322;SDS011;31382;50.200;8.674;2023-05-07T11:48:16;1.08;;;0.75;;
45322;SDS011;31382;50.200;8.674;2023-05-07T11:53:18;1.65;;;0.88;;
45322;SDS011;31382;50.200;8.674;2023-05-07T11:58:21;0.77;;;0.75;;
45322;SDS011;31382;50.200;8.674;2023-05-07T12:03:24;1.23;;;0.80;;
45322;SDS011;31382;50.200;8.674;2023-05-07T12:08:25;2.08;;;0.70;;
45322;SDS011;31382;50.200;8.674;2023-05-07T12:13:26;2.55;;;1.50;;
45322;SDS011;31382;50.200;8.674;2023-05-07T12:18:28;2.58;;;0.70;;
45322;SDS011;31382;50.200;8.674;2023-05-07T12:23:30;1.65;;;0.60;;
45322;SDS011;31382;50.200;8.674;2023-05-07T12:28:36;1.65;;;0.95;;
45322;SDS011;31382;50.200;8.674;2023-05-07T12:33:39;2.60;;;1.10;;
45322;SDS011;31382;50.200;8.674;2023-05-07T12:38:41;1.70;;;0.90;;
45322;SDS011;31382;50.200;8.674;2023-05-07T12:43:45;2.17;;;0.77;;
45322;SDS011;31382;50.200;8.674;2023-05-07T12:48:47;1.73;;;0.90;;
45322;SDS011;31382;50.200;8.674;2023-05-07T12:53:49;3.25;;;1.17;;
45322;SDS011;31382;50.200;8.674;2023-05-07T12:58:51;4.10;;;0.70;;
45322;SDS011;31382;50.200;8.674;2023-05-07T13:03:52;2.42;;;0.95;;
45322;SDS011;31382;50.200;8.674;2023-05-07T13:08:54;0.80;;;0.60;;
45322;SDS011;31382;50.200;8.674;2023-05-07T13:13:55;1.35;;;0.90;;
45322;SDS011;31382;50.200;8.674;2023-05-07T13:18:56;1.00;;;0.70;;
45322;SDS011;31382;50.200;8.674;2023-05-07T13:23:58;1.27;;;0.82;;
45322;SDS011;31382;50.200;8.674;2023-05-07T13:28:59;1.27;;;0.85;;
45322;SDS011;31382;50.200;8.674;2023-05-07T13:34:01;1.98;;;0.70;;
45322;SDS011;31382;50.200;8.674;2023-05-07T13:39:03;1.55;;;0.80;;
45322;SDS011;31382;50.200;8.674;2023-05-07T13:44:04;1.13;;;0.80;;
45322;SDS011;31382;50.200;8.674;2023-05-07T13:49:06;2.22;;;0.70;;
45322;SDS011;31382;50.200;8.674;2023-05-07T13:54:07;1.42;;;0.90;;
45322;SDS011;31382;50.200;8.674;2023-05-07T13:59:09;1.00;;;0.80;;
45322;SDS011;31382;50.200;8.674;2023-05-07T14:04:10;2.10;;;0.82;;
45322;SDS011;31382;50.200;8.674;2023-05-07T14:09:12;1.80;;;0.70;;
45322;SDS011;31382;50.200;8.674;2023-05-07T14:14:14;9.07;;;0.70;;
45322;SDS011;31382;50.200;8.674;2023-05-07T14:19:15;4.15;;;0.60;;
45322;SDS011;31382;50.200;8.674;2023-05-07T14:24:17;6.15;;;0.77;;
45322;SDS011;31382;50.200;8.674;2023-05-07T14:29:34;1.48;;;0.60;;
45322;SDS011;31382;50.200;8.674;2023-05-07T14:34:37;1.58;;;0.70;;
45322;SDS011;31382;50.200;8.674;2023-05-07T14:39:38;3.78;;;0.77;;
45322;SDS011;31382;50.200;8.674;2023-05-07T14:44:40;3.42;;;0.70;;
45322;SDS011;31382;50.200;8.674;2023-05-07T14:49:42;1.05;;;0.68;;
45322;SDS011;31382;50.200;8.674;2023-05-07T14:54:43;0.95;;;0.70;;
45322;SDS011;31382;50.200;8.674;2023-05-07T14:59:46;2.28;;;0.52;;
45322;SDS011;31382;50.200;8.674;2023-05-07T15:04:48;1.25;;;0.80;;
45322;SDS011;31382;50.200;8.674;2023-05-07T15:09:49;1.33;;;0.60;;
45322;SDS011;31382;50.200;8.674;2023-05-07T15:14:52;0.50;;;0.50;;
45322;SDS011;31382;50.200;8.674;2023-05-07T15:19:53;0.90;;;0.60;;
45322;SDS011;31382;50.200;8.674;2023-05-07T15:24:54;1.33;;;0.50;;
45322;SDS011;31382;50.200;8.674;2023-05-07T15:29:57;2.95;;;0.52;;
45322;SDS011;31382;50.200;8.674;2023-05-07T15:34:59;3.28;;;0.55;;
45322;SDS011;31382;50.200;8.674;2023-05-07T15:40:00;1.33;;;0.68;;
45322;SDS011;31382;50.200;8.674;2023-05-07T15:45:03;1.13;;;0.50;;
45322;SDS011;31382;50.200;8.674;2023-05-07T15:50:06;0.70;;;0.60;;
45322;SDS011;31382;50.200;8.674;2023-05-07T15:55:08;2.20;;;0.70;;
45322;SDS011;31382;50.200;8.674;2023-05-07T16:00:10;2.15;;;0.70;;
45322;SDS011;31382;50.200;8.674;2023-05-07T16:05:12;2.20;;;0.80;;
45322;SDS011;31382;50.200;8.674;2023-05-07T16:10:14;1.17;;;0.73;;
45322;SDS011;31382;50.200;8.674;2023-05-07T16:15:16;1.42;;;0.63;;
45322;SDS011;31382;50.200;8.674;2023-05-07T16:20:17;4.30;;;0.75;;
45322;SDS011;31382;50.200;8.674;2023-05-07T16:25:20;1.20;;;0.80;;
45322;SDS011;31382;50.200;8.674;2023-05-07T16:30:21;2.67;;;0.75;;
45322;SDS011;31382;50.200;8.674;2023-05-07T16:35:22;0.70;;;0.70;;
45322;SDS011;31382;50.200;8.674;2023-05-07T16:40:24;2.83;;;0.85;;
45322;SDS011;31382;50.200;8.674;2023-05-07T16:45:25;1.33;;;1.08;;
45322;SDS011;31382;50.200;8.674;2023-05-07T16:50:27;3.42;;;0.90;;
45322;SDS011;31382;50.200;8.674;2023-05-07T16:55:28;1.67;;;0.95;;
45322;SDS011;31382;50.200;8.674;2023-05-07T17:00:38;2.60;;;0.90;;
45322;SDS011;31382;50.200;8.674;2023-05-07T17:05:51;2.90;;;1.20;;
45322;SDS011;31382;50.200;8.674;2023-05-07T17:10:52;4.05;;;0.80;;
45322;SDS011;31382;50.200;8.674;2023-05-07T17:15:54;1.67;;;0.88;;
45322;SDS011;31382;50.200;8.674;2023-05-07T17:20:55;1.92;;;0.75;;
45322;SDS011;31382;50.200;8.674;2023-05-07T17:25:57;1.58;;;0.80;;
45322;SDS011;31382;50.200;8.674;2023-05-07T17:30:58;1.90;;;0.80;;
45322;SDS011;31382;50.200;8.674;2023-05-07T17:36:00;4.30;;;0.90;;
45322;SDS011;31382;50.200;8.674;2023-05-07T17:41:03;1.20;;;1.00;;
45322;SDS011;31382;50.200;8.674;2023-05-07T17:46:04;1.75;;;0.80;;
45322;SDS011;31382;50.200;8.674;2023-05-07T17:51:05;1.50;;;0.90;;
45322;SDS011;31382;50.200;8.674;2023-05-07T17:56:07;4.10;;;1.00;;
45322;SDS011;31382;50.200;8.674;2023-05-07T18:01:08;1.77;;;0.90;;
45322;SDS011;31382;50.200;8.674;2023-05-07T18:06:10;1.10;;;0.77;;
45322;SDS011;31382;50.200;8.674;2023-05-07T18:11:11;2.47;;;1.10;;
45322;SDS011;31382;50.200;8.674;2023-05-07T18:16:13;1.10;;;0.80;;
45322;SDS011;31382;50.200;8.674;2023-05-07T18:21:15;2.75;;;0.65;;
45322;SDS011;31382;50.200;8.674;2023-05-07T18:26:18;2.40;;;0.95;;
45322;SDS011;31382;50.200;8.674;2023-05-07T18:31:21;1.13;;;0.93;;
45322;SDS011;31382;50.200;8.674;2023-05-07T18:36:22;2.15;;;0.90;;
45322;SDS011;31382;50.200;8.674;2023-05-07T18:41:25;2.25;;;0.80;;
45322;SDS011;31382;50.200;8.674;2023-05-07T18:46:26;1.85;;;0.93;;
45322;SDS011;31382;50.200;8.674;2023-05-07T18:51:29;1.00;;;0.90;;
45322;SDS011;31382;50.200;8.674;2023-05-07T18:56:31;2.75;;;1.05;;
45322;SDS011;31382;50.200;8.674;2023-05-07T19:01:32;2.15;;;1.00;;
45322;SDS011;31382;50.200;8.674;2023-05-07T19:06:33;2.30;;;0.90;;
45322;SDS011;31382;50.200;8.674;2023-05-07T19:11:35;1.45;;;0.88;;
45322;SDS011;31382;50.200;8.674;2023-05-07T19:16:36;1.75;;;1.02;;
45322;SDS011;31382;50.200;8.674;2023-05-07T19:21:38;4.22;;;1.00;;
45322;SDS011;31382;50.200;8.674;2023-05-07T19:26:39;1.67;;;1.10;;
45322;SDS011;31382;50.200;8.674;2023-05-07T19:31:41;2.40;;;1.20;;
45322;SDS011;31382;50.200;8.674;2023-05-07T19:36:42;12.25;;;3.03;;
45322;SDS011;31382;50.200;8.674;2023-05-07T19:41:43;1.42;;;1.23;;
45322;SDS011;31382;50.200;8.674;2023-05-07T19:46:45;2.95;;;1.35;;
45322;SDS011;31382;50.200;8.674;2023-05-07T19:51:47;1.70;;;1.30;;
45322;SDS011;31382;50.200;8.674;2023-05-07T19:56:49;2.75;;;1.20;;
45322;SDS011;31382;50.200;8.674;2023-05-07T20:01:50;4.00;;;1.60;;
45322;SDS011;31382;50.200;8.674;2023-05-07T20:06:52;2.00;;;1.05;;
45322;SDS011;31382;50.200;8.674;2023-05-07T20:11:53;1.35;;;1.25;;
45322;SDS011;31382;50.200;8.674;2023-05-07T20:16:55;2.17;;;1.58;;
45322;SDS011;31382;50.200;8.674;2023-05-07T20:21:56;4.15;;;1.83;;
45322;SDS011;31382;50.200;8.674;2023-05-07T20:26:58;1.70;;;1.58;;
45322;SDS011;31382;50.200;8.674;2023-05-07T20:31:59;3.80;;;1.77;;
45322;SDS011;31382;50.200;8.674;2023-05-07T20:37:01;4.60;;;1.90;;
45322;SDS011;31382;50.200;8.674;2023-05-07T20:42:03;3.47;;;2.25;;
45322;SDS011;31382;50.200;8.674;2023-05-07T20:47:04;6.45;;;2.30;;
45322;SDS011;31382;50.200;8.674;2023-05-07T20:52:05;4.13;;;3.10;;
45322;SDS011;31382;50.200;8.674;2023-05-07T20:57:07;4.10;;;3.28;;
45322;SDS011;31382;50.200;8.674;2023-05-07T21:02:08;5.50;;;3.42;;
45322;SDS011;31382;50.200;8.674;2023-05-07T21:07:10;3.38;;;3.08;;
45322;SDS011;31382;50.200;8.674;2023-05-07T21:12:12;4.20;;;2.97;;
45322;SDS011;31382;50.200;8.674;2023-05-07T21:17:13;4.22;;;3.15;;
45322;SDS011;31382;50.200;8.674;2023-05-07T21:22:15;3.97;;;3.67;;
45322;SDS011;31382;50.200;8.674;2023-05-07T21:27:16;8.48;;;5.95;;
45322;SDS011;31382;50.200;8.674;2023-05-07T21:32:17;5.82;;;5.20;;
45322;SDS011;31382;50.200;8.674;2023-05-07T21:37:19;7.30;;;5.55;;
45322;SDS011;31382;50.200;8.674;2023-05-07T21:42:20;5.75;;;4.75;;
45322;SDS011;31382;50.200;8.674;2023-05-07T21:47:23;6.85;;;5.93;;
45322;SDS011;31382;50.200;8.674;2023-05-07T21:52:25;5.57;;;4.68;;
45322;SDS011;31382;50.200;8.674;2023-05-07T21:57:26;5.63;;;5.03;;
45322;SDS011;31382;50.200;8.674;2023-05-07T22:02:28;6.35;;;5.10;;
45322;SDS011;31382;50.200;8.674;2023-05-07T22:07:29;5.45;;;4.95;;
45322;SDS011;31382;50.200;8.674;2023-05-07T22:12:31;4.85;;;4.22;;
45322;SDS011;31382;50.200;8.674;2023-05-07T22:17:33;5.30;;;4.45;;
45322;SDS011;31382;50.200;8.674;2023-05-07T22:22:44;6.32;;;4.60;;
45322;SDS011;31382;50.200;8.674;2023-05-07T22:27:52;9.45;;;5.80;;
45322;SDS011;31382;50.200;8.674;2023-05-07T22:32:54;6.30;;;4.90;;
45322;SDS011;31382;50.200;8.674;2023-05-07T22:37:55;6.45;;;4.38;;
45322;SDS011;31382;50.200;8.674;2023-05-07T22:42:58;8.80;;;4.35;;
45322;SDS011;31382;50.200;8.674;2023-05-07T22:47:59;7.38;;;4.93;;
45322;SDS011;31382;50.200;8.674;2023-05-07T22:53:01;5.88;;;4.95;;
45322;SDS011;31382;50.200;8.674;2023-05-07T22:58:02;5.13;;;4.63;;
45322;SDS011;31382;50.200;8.674;2023-05-07T23:03:03;5.03;;;4.57;;
45322;SDS011;31382;50.200;8.674;2023-05-07T23:08:05;4.85;;;4.35;;
45322;SDS011;31382;50.200;8.674;2023-05-07T23:13:06;6.80;;;4.82;;
45322;SDS011;31382;50.200;8.674;2023-05-07T23:18:13;6.20;;;4.53;;
45322;SDS011;31382;50.200;8.674;2023-05-07T23:23:15;5.80;;;5.15;;
45322;SDS011;31382;50.200;8.674;2023-05-07T23:28:16;6.90;;;4.85;;
45322;SDS011;31382;50.200;8.674;2023-05-07T23:33:17;5.60;;;4.97;;
45322;SDS011;31382;50.200;8.674;2023-05-07T23:38:19;6.55;;;4.95;;
45322;SDS011;31382;50.200;8.674;2023-05-07T23:43:21;5.10;;;4.60;;
45322;SDS011;31382;50.200;8.674;2023-05-07T23:48:23;7.47;;;4.72;;
45322;SDS011;31382;50.200;8.674;2023-05-07T23:53:24;6.95;;;5.22;;
45322;SDS011;31382;50.200;8.674;2023-05-07T23:58:26;7.65;;;4.75;;
